Flight Track Log - Related Links

Times and Time Zones

All times are in EDT time to prevent confusion due to time zone crossing. See the DAL1979 flight status page for this flight to view local times or setup timezone preferences in your user account.

Time Position Orientation Groundspeed Altitude Reporting Facility
EDT Latitude Longitude Course Direction KTS MPH feet Rate Location/Type
Sun 04:01:02 PM 28.5110 -81.3150 270° West 230 265 3,500  Level FlightAware ADS-B
Sun 04:02:00 PM 28.4167 -81.7063 270° West  Level FlightAware Approximate
Sun 04:03:00 PM 28.4167 -81.8418 270° West  Level FlightAware Approximate
Sun 04:04:00 PM 28.4167 -81.9772 270° West  Level FlightAware Approximate
Sun 04:04:37 PM 28.5450 -81.5440 280° West 260 299 9,900  Level FlightAware ADS-B
Sun 04:08:27 PM 28.4590 -81.9230 256° West 364 419 16,000 1,855 Climbing FlightAware ADS-B
Sun 04:09:12 PM 28.4620 -82.0260 272° West 381 438 18,400 2,600 Climbing FlightAware ADS-B
Sun 04:09:57 PM 28.4660 -82.1190 273° West 384 442 19,900 1,976 Climbing FlightAware ADS-B
Sun 04:10:37 PM 28.4690 -82.1990 272° West 387 445 21,200 1,694 Climbing FlightAware ADS-B
Sun 04:11:22 PM 28.4720 -82.2870 272° West 396 456 22,300 1,341 Climbing FlightAware ADS-B
Sun 04:12:02 PM 28.4870 -82.3670 282° West 412 474 23,100 1,309 Climbing FlightAware ADS-B
Sun 04:12:17 PM 28.5050 -82.3990 303° West 423 487 23,500 1,114 Climbing FlightAware ADS-B
Sun 04:13:12 PM 28.5870 -82.4710 322° Northwest 431 496 24,400 1,453 Climbing FlightAware ADS-B
Sun 04:13:52 PM 28.6560 -82.5240 326° Northwest 433 498 25,800 1,694 Climbing FlightAware ADS-B
Sun 04:14:37 PM 28.7340 -82.5860 325° Northwest 438 504 26,800 1,200 Climbing FlightAware ADS-B
Sun 04:15:12 PM 28.7930 -82.6340 325° Northwest 449 517 27,400 988 Climbing FlightAware ADS-B
Sun 04:16:02 PM 28.8800 -82.7040 325° Northwest 457 526 28,200 743 Climbing FlightAware ADS-B
Sun 04:16:57 PM 28.9650 -82.7740 324° Northwest 458 527 28,700 316 Climbing FlightAware ADS-B
Sun 04:17:37 PM 29.0230 -82.8220 324° Northwest 458 527 28,700  Level FlightAware ADS-B
Sun 04:18:17 PM 29.0820 -82.8710 324° Northwest 458 527 28,700  Level FlightAware ADS-B
Sun 04:18:57 PM 29.1400 -82.9190 324° Northwest 458 527 28,700  Level FlightAware ADS-B
Sun 04:19:37 PM 29.1980 -82.9670 324° Northwest 458 527 28,700  Level FlightAware ADS-B
Sun 04:20:27 PM 29.2710 -83.0280 324° Northwest 458 527 28,700 473 Level FlightAware ADS-B
Sun 04:22:22 PM 29.5350 -83.2350 326° Northwest 450 518 30,000 538 Climbing FlightAware ADS-B
Sun 04:22:52 PM 29.5870 -83.2780 324° Northwest 456 525 30,000  Level FlightAware ADS-B
Sun 04:23:47 PM 29.6810 -83.3580 324° Northwest 457 526 30,000  Level FlightAware ADS-B
Sun 04:24:27 PM 29.7500 -83.4160 324° Northwest 457 526 30,000  Level FlightAware ADS-B
Sun 04:25:07 PM 29.8150 -83.4700 324° Northwest 458 527 30,000  Level FlightAware ADS-B
Sun 04:25:52 PM 29.8810 -83.5280 323° Northwest 458 527 30,000  Level FlightAware ADS-B
Sun 04:26:32 PM 29.9390 -83.5780 323° Northwest 458 527 30,000  Level FlightAware ADS-B
Sun 04:27:12 PM 29.9960 -83.6280 323° Northwest 458 527 30,000  Level FlightAware ADS-B
Sun 04:27:52 PM 30.0540 -83.6780 323° Northwest 458 527 30,000  Level FlightAware ADS-B
Sun 04:28:32 PM 30.1110 -83.7280 323° Northwest 458 527 30,000  Level FlightAware ADS-B
Sun 04:29:32 PM 30.2820 -83.8230 334° Northwest 466 536 30,000  Level FlightAware ADS-B
Sun 04:30:12 PM 30.3690 -83.8640 338° Northwest 479 551 30,000  Level FlightAware ADS-B
Sun 04:31:12 PM 30.4990 -83.8940 349° North 480 552 30,000  Level FlightAware ADS-B
Sun 04:31:47 PM 30.5750 -83.9120 348° North 478 550 30,000  Level FlightAware ADS-B
Sun 04:32:27 PM 30.6540 -83.9380 344° North 474 545 30,000  Level FlightAware ADS-B
Sun 04:33:17 PM 30.7530 -83.9940 334° Northwest 459 528 30,000  Level FlightAware ADS-B
Sun 04:34:12 PM 30.8520 -84.0570 331° Northwest 457 526 30,000  Level FlightAware ADS-B
Sun 04:34:57 PM 30.9270 -84.1060 331° Northwest 457 526 30,000  Level FlightAware ADS-B
Sun 04:35:37 PM 30.9900 -84.1470 331° Northwest 457 526 30,000  Level FlightAware ADS-B
Sun 04:36:17 PM 31.0530 -84.1870 331° Northwest 457 526 30,000  Level FlightAware ADS-B
Sun 04:36:57 PM 31.1160 -84.2280 331° Northwest 457 526 30,000  Level FlightAware ADS-B
Sun 04:37:47 PM 31.1950 -84.2790 331° Northwest 457 526 30,000  Level FlightAware ADS-B
Sun 04:38:27 PM 31.2570 -84.3200 331° Northwest 457 526 30,000  Level FlightAware ADS-B
Sun 04:39:07 PM 31.3200 -84.3600 332° Northwest 457 526 30,000  Level FlightAware ADS-B
Sun 04:39:47 PM 31.3830 -84.4010 331° Northwest 457 526 30,000  Level FlightAware ADS-B
Sun 04:40:27 PM 31.4460 -84.4420 331° Northwest 457 526 30,000  Level FlightAware ADS-B
Sun 04:41:17 PM 31.5250 -84.4930 331° Northwest 457 526 30,000  Level FlightAware ADS-B
Sun 04:41:57 PM 31.5880 -84.5340 331° Northwest 457 526 30,000  Level FlightAware ADS-B
Sun 04:42:37 PM 31.6500 -84.5750 331° Northwest 457 526 30,000  Level FlightAware ADS-B
Sun 04:43:17 PM 31.7130 -84.6160 331° Northwest 457 526 30,000  Level FlightAware ADS-B
Sun 04:43:57 PM 31.7760 -84.6570 331° Northwest 457 526 30,000 2,684 Level FlightAware ADS-B
Sun 04:44:33 PM 32.0283 -84.7886 331° Northwest 462 532 33,400 2,500 Climbing Atlanta Center
Sun 04:45:33 PM 32.1406 -84.8606 332° Northwest 457 526 34,000 300 Climbing Atlanta Center
Sun 04:46:33 PM 32.2547 -84.9303 333° Northwest 457 526 34,000  Level Atlanta Center
Sun 04:47:33 PM 32.3608 -84.9953 333° Northwest 446 513 34,000  Level Atlanta Center
Sun 04:48:33 PM 32.4792 -85.0681 333° Northwest 454 522 34,000  Level Atlanta Center
Sun 04:49:33 PM 32.5872 -85.1333 333° Northwest 455 524 34,000  Level Atlanta Center
Sun 04:50:33 PM 32.7053 -85.2089 332° Northwest 455 524 34,000  Level Atlanta Center
Sun 04:51:33 PM 32.8153 -85.2772 332° Northwest 455 524 34,000  Level Atlanta Center
Sun 04:52:33 PM 32.9419 -85.3556 333° Northwest 455 524 34,000  Level Atlanta Center
Sun 04:53:33 PM 33.0331 -85.4142 332° Northwest 460 529 34,000  Level Atlanta Center
Sun 04:54:33 PM 33.1697 -85.5031 331° Northwest 455 524 34,000  Level Atlanta Center
Sun 04:55:33 PM 33.2858 -85.5769 332° Northwest 455 524 34,000  Level Atlanta Center
Sun 04:56:33 PM 33.3914 -85.6486 330° Northwest 467 537 34,000  Level Atlanta Center
Sun 04:57:33 PM 33.5197 -85.7283 333° Northwest 472 543 34,000  Level Atlanta Center
Sun 04:58:33 PM 33.6169 -85.7900 332° Northwest 472 543 34,000  Level Atlanta Center
Sun 04:59:33 PM 33.7453 -85.8675 333° Northwest 472 543 34,000  Level Atlanta Center
Sun 05:00:33 PM 33.8608 -85.9450 331° Northwest 472 543 34,000  Level Atlanta Center
Sun 05:01:33 PM 33.9828 -86.0228 332° Northwest 472 543 34,000  Level Atlanta Center
Sun 05:03:00 PM 34.1299 -86.1379 327° Northwest  Level FlightAware Approximate
Sun 05:09:14 PM 34.9016 -86.6363 327° Northwest 477 549 34,000  Level FlightAware ADS-B
Sun 05:09:51 PM 34.9738 -86.6845 331° Northwest 477 549 34,000  Level FlightAware ADS-B
Sun 05:10:24 PM 35.0387 -86.7281 331° Northwest 476 548 34,000  Level FlightAware ADS-B
Sun 05:10:56 PM 35.1000 -86.7693 331° Northwest 475 547 34,000  Level FlightAware ADS-B
Sun 05:11:28 PM 35.1617 -86.8107 331° Northwest 474 545 34,000  Level FlightAware ADS-B
Sun 05:11:59 PM 35.2213 -86.8511 331° Northwest 473 544 34,000  Level FlightAware ADS-B
Sun 05:12:38 PM 35.2953 -86.9010 331° Northwest 474 545 34,000  Level FlightAware ADS-B
Sun 05:13:37 PM 35.4040 -86.9750 331° Northwest 473 544 34,000  Level FlightAware ADS-B
Sun 05:14:22 PM 35.4930 -87.0350 331° Northwest 473 544 34,000  Level FlightAware ADS-B
Sun 05:15:02 PM 35.5710 -87.0880 331° Northwest 473 544 34,000  Level FlightAware ADS-B
Sun 05:15:42 PM 35.6460 -87.1390 331° Northwest 473 544 34,000  Level FlightAware ADS-B
Sun 05:16:27 PM 35.7290 -87.1960 331° Northwest 472 543 34,000  Level FlightAware ADS-B
Sun 05:17:07 PM 35.8080 -87.2500 331° Northwest 471 542 34,000  Level FlightAware ADS-B
Sun 05:17:52 PM 35.8950 -87.3090 331° Northwest 470 541 34,000  Level FlightAware ADS-B
Sun 05:18:32 PM 35.9720 -87.3620 331° Northwest 471 542 34,000  Level FlightAware ADS-B
Sun 05:19:17 PM 36.0560 -87.4200 331° Northwest 471 542 34,000  Level FlightAware ADS-B
Sun 05:19:57 PM 36.1310 -87.4720 331° Northwest 471 542 34,000  Level FlightAware ADS-B
Sun 05:20:42 PM 36.2200 -87.5330 331° Northwest 470 541 34,000  Level FlightAware ADS-B
Sun 05:21:22 PM 36.2970 -87.5860 331° Northwest 470 541 34,000  Level FlightAware ADS-B
Sun 05:22:02 PM 36.3710 -87.6380 331° Northwest 470 541 34,000  Level FlightAware ADS-B
Sun 05:22:37 PM 36.4370 -87.6840 331° Northwest 471 542 34,000  Level FlightAware ADS-B
Sun 05:23:32 PM 36.5290 -87.7500 330° Northwest 471 542 34,000  Level FlightAware ADS-B
Sun 05:24:12 PM 36.5930 -87.7960 330° Northwest 471 542 34,000  Level FlightAware ADS-B
Sun 05:24:52 PM 36.6960 -87.8650 332° Northwest 476 548 34,000  Level FlightAware ADS-B
Sun 05:25:32 PM 36.7610 -87.9110 330° Northwest 476 548 34,000  Level FlightAware ADS-B
Sun 05:26:12 PM 36.8260 -87.9580 330° Northwest 476 548 34,000  Level FlightAware ADS-B
Sun 05:26:52 PM 36.9260 -88.0260 331° Northwest 484 557 34,000  Level FlightAware ADS-B
Sun 05:27:37 PM 37.0010 -88.0800 330° Northwest 484 557 34,000  Level FlightAware ADS-B
Sun 05:28:22 PM 37.0980 -88.1470 331° Northwest 484 557 34,000  Level FlightAware ADS-B
Sun 05:29:02 PM 37.1710 -88.2000 330° Northwest 484 557 34,000  Level FlightAware ADS-B
Sun 05:29:47 PM 37.2630 -88.2640 331° Northwest 481 554 34,000  Level FlightAware ADS-B
Sun 05:30:27 PM 37.3470 -88.3240 330° Northwest 478 550 34,000  Level FlightAware ADS-B
Sun 05:31:12 PM 37.4320 -88.3850 330° Northwest 475 547 34,000  Level FlightAware ADS-B
Sun 05:31:52 PM 37.5080 -88.4390 331° Northwest 472 543 34,000  Level FlightAware ADS-B
Sun 05:32:32 PM 37.5850 -88.4940 330° Northwest 469 540 34,000  Level FlightAware ADS-B
Sun 05:33:17 PM 37.6670 -88.5530 330° Northwest 468 539 34,000  Level FlightAware ADS-B
Sun 05:33:57 PM 37.7440 -88.6090 330° Northwest 467 537 34,000  Level FlightAware ADS-B
Sun 05:34:42 PM 37.8300 -88.6700 331° Northwest 468 539 34,000  Level FlightAware ADS-B
Sun 05:35:22 PM 37.9060 -88.7250 330° Northwest 471 542 34,000  Level FlightAware ADS-B
Sun 05:36:07 PM 37.9920 -88.7880 330° Northwest 473 544 34,000  Level FlightAware ADS-B
Sun 05:36:47 PM 38.0690 -88.8440 330° Northwest 475 547 34,000  Level FlightAware ADS-B
Sun 05:37:42 PM 38.1640 -88.9130 330° Northwest 476 548 34,000  Level FlightAware ADS-B
Sun 05:38:27 PM 38.2610 -88.9830 330° Northwest 487 560 34,000  Level FlightAware ADS-B
Sun 05:39:07 PM 38.3330 -89.0360 330° Northwest 488 562 34,000  Level FlightAware ADS-B
Sun 05:39:47 PM 38.4090 -89.0930 330° Northwest 489 563 34,000  Level FlightAware ADS-B
Sun 05:40:42 PM 38.5180 -89.1740 330° Northwest 491 565 34,000  Level FlightAware ADS-B
Sun 05:41:22 PM 38.5990 -89.2320 331° Northwest 492 566 34,000  Level FlightAware ADS-B
Sun 05:42:07 PM 38.6790 -89.2930 329° Northwest 492 566 34,000  Level FlightAware ADS-B
Sun 05:42:52 PM 38.7760 -89.3650 330° Northwest 495 570 34,000  Level FlightAware ADS-B
Sun 05:43:32 PM 38.8430 -89.4160 329° Northwest 495 570 34,000  Level FlightAware ADS-B
Sun 05:44:17 PM 38.9460 -89.4900 331° Northwest 501 577 34,000  Level FlightAware ADS-B
Sun 05:44:57 PM 39.0250 -89.5500 329° Northwest 501 577 34,000 480 Level FlightAware ADS-B
Sun 05:45:32 PM 39.1010 -89.6070 330° Northwest 501 577 34,600 494 Climbing FlightAware ADS-B
Sun 05:46:22 PM 39.1900 -89.6750 329° Northwest 502 578 34,700 800 Climbing FlightAware ADS-B
Sun 05:47:02 PM 39.2770 -89.7400 330° Northwest 504 580 35,800 880 Climbing FlightAware ADS-B
Sun 05:47:37 PM 39.3450 -89.7930 329° Northwest 504 580 35,800 141 Level FlightAware ADS-B
Sun 05:48:27 PM 39.4510 -89.8720 330° Northwest 504 580 36,000 133 Climbing FlightAware ADS-B
Sun 05:49:07 PM 39.5240 -89.9280 329° Northwest 505 581 36,000  Level FlightAware ADS-B
Sun 05:49:47 PM 39.6090 -89.9930 330° Northwest 506 582 36,000  Level FlightAware ADS-B
Sun 05:50:32 PM 39.6930 -90.0580 329° Northwest 506 582 36,000  Level FlightAware ADS-B
Sun 05:51:07 PM 39.7750 -90.1200 330° Northwest 508 585 36,000  Level FlightAware ADS-B
Sun 05:52:12 PM 39.8970 -90.2150 329° Northwest 508 585 36,000  Level FlightAware ADS-B
Sun 05:52:52 PM 39.9870 -90.2850 329° Northwest 508 585 36,000  Level FlightAware ADS-B
Sun 05:53:32 PM 40.0700 -90.3490 329° Northwest 505 581 36,000  Level FlightAware ADS-B
Sun 05:54:17 PM 40.1550 -90.4160 329° Northwest 504 580 36,000  Level FlightAware ADS-B
Sun 05:54:52 PM 40.2230 -90.4690 329° Northwest 503 579 36,000  Level FlightAware ADS-B
Sun 05:55:42 PM 40.3230 -90.5470 329° Northwest 500 575 36,000  Level FlightAware ADS-B
Sun 05:56:22 PM 40.4080 -90.6150 329° Northwest 492 566 36,000  Level FlightAware ADS-B
Sun 05:57:02 PM 40.4820 -90.6730 329° Northwest 487 560 36,000  Level FlightAware ADS-B
Sun 05:57:47 PM 40.5650 -90.7390 329° Northwest 470 541 36,000  Level FlightAware ADS-B
Sun 05:58:42 PM 40.6690 -90.8220 329° Northwest 456 525 36,000  Level FlightAware ADS-B
Sun 05:59:27 PM 40.7500 -90.8860 329° Northwest 452 520 36,000  Level FlightAware ADS-B
Sun 06:00:07 PM 40.8210 -90.9440 328° Northwest 461 531 36,000  Level FlightAware ADS-B
Sun 06:00:47 PM 40.8970 -91.0050 329° Northwest 460 529 36,000 -635 Level FlightAware ADS-B
Sun 06:01:32 PM 40.9760 -91.0690 329° Northwest 466 536 35,100 -706 Descending FlightAware ADS-B
Sun 06:02:12 PM 41.0410 -91.1230 328° Northwest 468 539 35,000 -71 Descending FlightAware ADS-B
Sun 06:02:57 PM 41.1370 -91.2000 329° Northwest 482 555 35,000  Level FlightAware ADS-B
Sun 06:03:52 PM 41.2410 -91.2850 328° Northwest 462 532 35,000  Level FlightAware ADS-B
Sun 06:04:32 PM 41.3100 -91.3410 329° Northwest 456 525 35,000  Level FlightAware ADS-B
Sun 06:05:12 PM 41.3790 -91.3980 328° Northwest 451 519 35,000  Level FlightAware ADS-B
Sun 06:05:52 PM 41.4490 -91.4550 329° Northwest 439 505 35,000  Level FlightAware ADS-B
Sun 06:06:37 PM 41.5260 -91.5200 328° Northwest 438 504 35,000 -675 Level FlightAware ADS-B
Sun 06:07:12 PM 41.5910 -91.5730 329° Northwest 458 527 34,100 -800 Descending FlightAware ADS-B
Sun 06:07:52 PM 41.6670 -91.6370 328° Northwest 471 542 34,000 -63 Descending FlightAware ADS-B
Sun 06:08:47 PM 41.7640 -91.7180 328° Northwest 456 525 34,000  Level FlightAware ADS-B
Sun 06:09:27 PM 41.8380 -91.7790 328° Northwest 458 527 34,000  Level FlightAware ADS-B
Sun 06:10:07 PM 41.9080 -91.8380 328° Northwest 455 524 34,000  Level FlightAware ADS-B
Sun 06:10:52 PM 41.9910 -91.9090 328° Northwest 453 521 34,000  Level FlightAware ADS-B
Sun 06:11:32 PM 42.0600 -91.9670 328° Northwest 456 525 34,000  Level FlightAware ADS-B
Sun 06:12:17 PM 42.1420 -92.0370 328° Northwest 459 528 34,000  Level FlightAware ADS-B
Sun 06:12:57 PM 42.2160 -92.1000 328° Northwest 461 531 34,000  Level FlightAware ADS-B
Sun 06:14:07 PM 42.3440 -92.2100 328° Northwest 464 534 34,000  Level FlightAware ADS-B
Sun 06:14:47 PM 42.4160 -92.2710 328° Northwest 464 534 34,000  Level FlightAware ADS-B
Sun 06:15:32 PM 42.4990 -92.3430 327° Northwest 463 533 34,000  Level FlightAware ADS-B
Sun 06:16:12 PM 42.5660 -92.4050 326° Northwest 463 533 34,000  Level FlightAware ADS-B
Sun 06:16:52 PM 42.6400 -92.4720 326° Northwest 462 532 34,000  Level FlightAware ADS-B
Sun 06:17:37 PM 42.7150 -92.5380 327° Northwest 461 531 34,000  Level FlightAware ADS-B
Sun 06:18:22 PM 42.8020 -92.6190 326° Northwest 459 528 34,000  Level FlightAware ADS-B
Sun 06:19:02 PM 42.8720 -92.6690 332° Northwest 458 527 34,000 -375 Level FlightAware ADS-B
Sun 06:19:42 PM 42.9590 -92.7050 343° North 459 528 33,500 -1,906 Descending FlightAware ADS-B
Sun 06:20:27 PM 43.0480 -92.7410 344° North 468 539 31,300 -2,894 Descending FlightAware ADS-B
Sun 06:21:07 PM 43.1330 -92.7750 344° North 473 544 29,400 -2,541 Descending FlightAware ADS-B
Sun 06:21:52 PM 43.2280 -92.8130 344° North 462 532 27,700 -2,259 Descending FlightAware ADS-B
Sun 06:22:32 PM 43.3090 -92.8460 343° North 453 521 26,200 -2,250 Descending FlightAware ADS-B
Sun 06:23:12 PM 43.3880 -92.8780 344° North 445 512 24,700 -2,259 Descending FlightAware ADS-B
Sun 06:23:57 PM 43.4740 -92.9130 344° North 436 502 23,000 -2,188 Descending FlightAware ADS-B
Sun 06:24:37 PM 43.5510 -92.9440 344° North 428 493 21,600 -2,188 Descending FlightAware ADS-B
Sun 06:25:22 PM 43.6390 -92.9800 344° North 418 481 19,900 -2,329 Descending FlightAware ADS-B
Sun 06:26:02 PM 43.7130 -93.0110 343° North 414 476 18,300 -2,250 Descending FlightAware ADS-B
Sun 06:26:42 PM 43.7860 -93.0400 344° North 404 465 16,900 -2,047 Descending FlightAware ADS-B
Sun 06:27:27 PM 43.8610 -93.0710 343° North 397 457 15,400 -2,118 Descending FlightAware ADS-B
Sun 06:28:07 PM 43.9330 -93.1010 343° North 389 448 13,900 -2,188 Descending FlightAware ADS-B
Sun 06:28:52 PM 44.0110 -93.1340 343° North 380 437 12,300 -2,047 Descending FlightAware ADS-B
Sun 06:29:32 PM 44.0790 -93.1620 344° North 371 427 11,000 -1,425 Descending FlightAware ADS-B
Sun 06:30:12 PM 44.1430 -93.1890 343° North 341 392 10,400 -771 Descending FlightAware ADS-B
Sun 06:30:42 PM 44.1830 -93.2050 344° North 320 368 10,100 -500 Descending FlightAware ADS-B
Sun 06:31:12 PM 44.2280 -93.2190 347° North 297 342 9,900 -171 Descending FlightAware ADS-B
Sun 06:31:52 PM 44.2820 -93.2170 North 289 333 9,900  Level FlightAware ADS-B
Sun 06:32:07 PM 44.3010 -93.2150 North 290 334 9,900 -300 Level FlightAware ADS-B
Sun 06:32:32 PM 44.3360 -93.2110 North 285 328 9,700 -1,200 Descending FlightAware ADS-B
Sun 06:33:02 PM 44.3760 -93.2070 North 284 327 8,800 -1,500 Descending FlightAware ADS-B
Sun 06:33:32 PM 44.4150 -93.2040 North 281 323 8,200 -1,200 Descending FlightAware ADS-B
Sun 06:33:57 PM 44.4450 -93.2010 North 278 320 7,700 -1,200 Descending FlightAware ADS-B
Sun 06:34:12 PM 44.4640 -93.1990 North 276 318 7,400 -1,067 Descending FlightAware ADS-B
Sun 06:34:42 PM 44.5040 -93.1960 North 279 321 6,900 -667 Descending FlightAware ADS-B
Sun 06:34:57 PM 44.5230 -93.1940 North 282 325 6,900 -600 Level FlightAware ADS-B
Sun 06:35:22 PM 44.5560 -93.1910 North 278 320 6,500 -1,200 Descending FlightAware ADS-B
Sun 06:35:37 PM 44.5750 -93.1890 North 279 321 6,100 -1,467 Descending FlightAware ADS-B
Sun 06:36:07 PM 44.6130 -93.1860 North 278 320 5,400 -1,333 Descending FlightAware ADS-B
Sun 06:36:22 PM 44.6310 -93.1840 North 277 319 5,100 -1,350 Descending FlightAware ADS-B
Sun 06:36:47 PM 44.6640 -93.1890 354° North 264 304 4,500 -1,418 Descending FlightAware ADS-B
Sun 06:37:17 PM 44.6990 -93.1990 349° North 247 284 3,800 -1,418 Descending FlightAware ADS-B
Sun 06:37:42 PM 44.7270 -93.2070 349° North 228 262 3,200 -1,200 Descending FlightAware ADS-B
Sun 06:38:12 PM 44.7570 -93.2140 351° North 200 230 2,700 -982 Descending FlightAware ADS-B
Sun 06:38:37 PM 44.7780 -93.2200 349° North 179 206 2,300 -900 Descending FlightAware ADS-B
Sun 06:38:52 PM 44.7880 -93.2230 348° North 162 186 2,100 -933 Descending FlightAware ADS-B
Sun 06:39:22 PM 44.8110 -93.2290 350° North 149 171 1,600 -873 Descending FlightAware ADS-B
Sun 06:39:47 PM 44.8270 -93.2330 350° North 149 171 1,300 -764 Descending FlightAware ADS-B
Sun 06:40:17 PM 44.8480 -93.2390 349° North 146 168 900 -800 Descending FlightAware ADS-B

Login

Don't have an account? Register now (free) for customized features, flight alerts, and more!